createdAt,value
2022-09-06T18:17:54.009Z,72.78
2022-09-06T18:18:55.005Z,72.89
2022-09-06T18:19:54.972Z,73.39
2022-09-06T18:20:54.967Z,73.72
2022-09-06T18:21:54.953Z,74.52
2022-09-06T18:22:54.945Z,73.92
2022-09-06T18:23:54.951Z,74.16
2022-09-06T18:24:58.157Z,74.26
2022-09-06T18:25:54.913Z,73.96
2022-09-06T18:26:54.908Z,73.75
2022-09-06T18:27:54.890Z,74.16
2022-09-06T18:28:54.907Z,74.36
2022-09-06T18:29:54.870Z,74.66
2022-09-06T18:30:54.864Z,75.46
2022-09-06T18:31:54.878Z,74.85
2022-09-06T18:32:54.851Z,74.55
2022-09-06T18:33:54.850Z,74.85
2022-09-06T18:34:54.829Z,75.05
2022-09-06T18:35:54.815Z,75.16
2022-09-06T18:36:54.820Z,75.39
2022-09-06T18:37:54.811Z,75.49
2022-09-06T18:38:54.804Z,76.09
2022-09-06T18:39:54.861Z,75.59
2022-09-06T18:40:55.714Z,75.29
2022-09-06T18:41:54.785Z,75.79
2022-09-06T18:42:54.742Z,75.69
2022-09-06T18:43:54.761Z,75.59
2022-09-06T18:44:54.849Z,75.39
2022-09-06T18:45:54.764Z,75.63
2022-09-06T18:46:54.708Z,75.63
2022-09-06T18:47:54.699Z,75.52
2022-09-06T18:48:54.701Z,75.43
2022-09-06T18:49:54.758Z,75.52
2022-09-06T18:50:59.219Z,75.63
2022-09-06T18:51:54.672Z,76.03
2022-09-06T18:52:54.651Z,76.43
2022-09-06T18:53:54.638Z,76.23
2022-09-06T18:54:54.750Z,76.03
2022-09-06T18:55:54.611Z,76.37
2022-09-06T18:56:54.760Z,76.06
2022-09-06T18:57:54.590Z,76.76
2022-09-06T18:58:55.109Z,76.26
2022-09-06T18:59:54.579Z,76.17
2022-09-06T19:00:54.615Z,76.56
2022-09-06T19:01:54.688Z,76.56
2022-09-06T19:02:54.534Z,76.06
2022-09-06T19:03:54.582Z,76.17
2022-09-06T19:04:54.521Z,75.87
2022-09-06T19:05:54.516Z,76.06
2022-09-06T19:06:54.580Z,76.56
2022-09-06T19:07:54.502Z,76.87
2022-09-06T19:08:54.496Z,76.87
2022-09-06T19:09:54.480Z,77.86
2022-09-06T19:10:54.461Z,78.10
2022-09-06T19:11:54.454Z,78.70
2022-09-06T19:12:54.440Z,78.70
2022-09-06T19:13:54.448Z,79.00
2022-09-06T19:14:54.415Z,78.44
2022-09-06T19:15:54.412Z,78.04
2022-09-06T19:16:54.403Z,77.94
2022-09-06T19:17:54.393Z,78.14
2022-09-06T19:18:54.494Z,78.44
2022-09-06T19:19:54.387Z,78.24
2022-09-06T19:20:54.364Z,78.34
2022-09-06T19:21:54.349Z,78.24
2022-09-06T19:22:54.342Z,78.84
2022-09-06T19:23:54.355Z,78.94
2022-09-06T19:24:54.314Z,78.78
2022-09-06T19:25:54.314Z,78.98
2022-09-06T19:26:54.294Z,80.48
2022-09-06T19:27:54.288Z,80.58
2022-09-06T19:28:54.298Z,81.59
2022-09-06T19:29:54.270Z,80.48
2022-09-06T19:30:54.258Z,79.78
2022-09-06T19:31:54.348Z,79.38
2022-09-06T19:32:54.235Z,79.88
2022-09-06T19:33:54.244Z,79.68
2022-09-06T19:34:54.216Z,80.22
2022-09-06T19:36:10.448Z,79.52
2022-09-06T19:36:54.198Z,79.52
2022-09-06T19:37:54.196Z,79.22
2022-09-06T19:39:03.195Z,79.22
2022-09-06T19:39:54.222Z,79.62
2022-09-06T19:40:54.167Z,79.82
2022-09-06T19:41:54.148Z,79.92
2022-09-06T19:42:54.131Z,79.92
2022-09-06T19:43:54.144Z,80.42
2022-09-06T19:44:54.113Z,81.52
2022-09-06T19:45:54.108Z,81.42
2022-09-06T19:46:54.130Z,81.36
2022-09-06T19:47:54.087Z,81.16
2022-09-06T19:48:54.102Z,82.06
2022-09-06T19:49:54.071Z,82.06
2022-09-06T19:50:54.049Z,81.87
2022-09-06T19:51:54.081Z,82.06
2022-09-06T19:52:54.027Z,81.70
2022-09-06T19:53:54.052Z,82.31
2022-09-06T19:54:54.011Z,81.80
2022-09-06T19:55:54.008Z,81.80
2022-09-06T19:56:54.025Z,81.90
2022-09-06T19:57:53.981Z,82.51
2022-09-06T19:58:53.987Z,83.11
2022-09-06T19:59:53.978Z,83.01
2022-09-06T20:00:53.999Z,82.70
2022-09-06T20:01:54.018Z,83.01
2022-09-06T20:02:53.930Z,83.21
2022-09-06T20:03:53.944Z,82.90
2022-09-06T20:04:53.905Z,83.21
2022-09-06T20:05:53.899Z,83.01
2022-09-06T20:06:53.889Z,82.60
2022-09-06T20:07:53.879Z,82.60
2022-09-06T20:08:53.890Z,83.01
2022-09-06T20:09:53.859Z,83.01
2022-09-06T20:10:53.844Z,83.61
2022-09-06T20:11:53.840Z,82.81
2022-09-06T20:12:53.827Z,82.70
2022-09-06T20:13:53.849Z,82.90
2022-09-06T20:14:53.807Z,82.70
2022-09-06T20:15:53.836Z,82.20
2022-09-06T20:16:54.402Z,82.20
2022-09-06T20:17:53.780Z,82.60
2022-09-06T20:18:53.782Z,82.00
2022-09-06T20:19:53.968Z,81.80
2022-09-06T20:20:54.765Z,82.00
2022-09-06T20:21:54.146Z,82.20
2022-09-06T20:22:53.858Z,81.70
2022-09-06T20:23:53.845Z,81.60
2022-09-06T20:24:53.915Z,81.40
2022-09-06T20:25:53.974Z,81.40
2022-09-06T20:26:54.023Z,81.70
2022-09-06T20:27:53.729Z,81.40
2022-09-06T20:28:53.681Z,81.30
2022-09-06T20:29:53.660Z,81.40
2022-09-06T20:30:53.950Z,81.70
2022-09-06T20:31:53.693Z,81.30
2022-09-06T20:32:53.627Z,81.20
2022-09-06T20:33:53.643Z,81.20
2022-09-06T20:34:53.702Z,81.30
2022-09-06T20:35:53.594Z,81.40
2022-09-06T20:36:53.578Z,81.50
2022-09-06T20:37:53.582Z,81.60
2022-09-06T20:38:53.583Z,81.40
2022-09-06T20:39:53.641Z,81.00
2022-09-06T20:40:53.542Z,80.90
2022-09-06T20:41:53.544Z,80.90
2022-09-06T20:42:53.518Z,81.50
2022-09-06T20:43:53.786Z,80.90
2022-09-06T20:44:53.534Z,80.90
2022-09-06T20:45:53.490Z,80.60
2022-09-06T20:46:53.537Z,80.60
2022-09-06T20:47:53.474Z,80.60
2022-09-06T20:48:53.493Z,80.60
2022-09-06T20:49:53.451Z,80.60
2022-09-06T20:50:53.434Z,81.20
2022-09-06T20:51:53.428Z,80.90
2022-09-06T20:52:53.427Z,80.70
2022-09-06T20:53:53.437Z,80.70
2022-09-06T20:54:53.392Z,81.00
2022-09-06T20:55:53.387Z,80.80
2022-09-06T20:56:53.386Z,80.80
2022-09-06T20:57:53.374Z,80.90
2022-09-06T20:58:53.374Z,81.00
2022-09-06T20:59:53.364Z,81.00
2022-09-06T21:00:53.495Z,81.34
2022-09-06T21:01:53.380Z,81.34
2022-09-06T21:02:53.317Z,81.44
2022-09-06T21:03:53.338Z,81.74
2022-09-06T21:04:53.318Z,81.34
2022-09-06T21:05:53.304Z,81.54
2022-09-06T21:06:53.275Z,81.34
2022-09-06T21:07:53.268Z,81.64
2022-09-06T21:08:53.276Z,82.24
2022-09-06T21:09:53.246Z,81.44
2022-09-06T21:10:53.240Z,81.64
2022-09-06T21:11:53.232Z,81.84
2022-09-06T21:12:53.213Z,82.14
2022-09-06T21:13:53.224Z,82.14
2022-09-06T21:14:53.196Z,82.24
2022-09-06T21:15:53.273Z,82.45
2022-09-06T21:16:53.291Z,82.64
2022-09-06T21:17:53.170Z,82.75
2022-09-06T21:18:53.180Z,82.95
2022-09-06T21:19:53.160Z,82.48
2022-09-06T21:20:53.131Z,82.28
2022-09-06T21:21:53.153Z,83.15
2022-09-06T21:22:53.130Z,82.58
2022-09-06T21:23:53.130Z,82.34
2022-09-06T21:24:53.127Z,82.24
2022-09-06T21:25:53.103Z,81.94
2022-09-06T21:26:53.081Z,82.34
2022-09-06T21:27:55.742Z,82.75
2022-09-06T21:28:53.073Z,82.45
2022-09-06T21:29:53.052Z,83.35
2022-09-06T21:30:53.032Z,83.39
2022-09-06T21:31:53.066Z,83.69
2022-09-06T21:32:53.011Z,83.59
2022-09-06T21:33:53.033Z,82.58
2022-09-06T21:34:52.992Z,83.79
2022-09-06T21:35:52.987Z,83.69
2022-09-06T21:36:52.972Z,83.29
2022-09-06T21:37:52.967Z,83.09
2022-09-06T21:38:52.966Z,83.59
2022-09-06T21:39:52.983Z,83.59
2022-09-06T21:40:52.931Z,82.98
2022-09-06T21:41:52.926Z,83.59
2022-09-06T21:42:52.924Z,83.69
2022-09-06T21:43:54.212Z,83.59
2022-09-06T21:44:52.971Z,84.09
2022-09-06T21:45:52.905Z,83.99
2022-09-06T21:46:53.742Z,83.89
2022-09-06T21:47:53.292Z,83.89
2022-09-06T21:48:52.868Z,83.83
2022-09-06T21:49:52.854Z,84.43
2022-09-06T21:50:52.838Z,84.13
2022-09-06T21:51:52.824Z,84.13
2022-09-06T21:52:52.815Z,84.43
2022-09-06T21:53:52.821Z,84.43
2022-09-06T21:54:52.781Z,84.13
2022-09-06T21:55:52.786Z,84.63
2022-09-06T21:56:52.766Z,84.83
2022-09-06T21:57:52.760Z,84.53
2022-09-06T21:58:52.764Z,84.83
2022-09-06T21:59:52.746Z,84.94
2022-09-06T22:00:52.805Z,85.24
2022-09-06T22:01:52.752Z,85.74
2022-09-06T22:02:52.703Z,85.84
2022-09-06T22:03:52.828Z,85.84
2022-09-06T22:04:52.700Z,85.64
2022-09-06T22:05:52.726Z,86.14
2022-09-06T22:06:52.666Z,85.44
2022-09-06T22:07:52.656Z,84.74
2022-09-06T22:08:52.664Z,84.53
2022-09-06T22:09:52.667Z,84.99
2022-09-06T22:10:52.871Z,85.30
2022-09-06T22:11:52.618Z,85.10
2022-09-06T22:12:52.599Z,85.10
2022-09-06T22:13:52.621Z,84.80
2022-09-06T22:14:52.581Z,84.39
2022-09-06T22:15:52.608Z,84.19
2022-09-06T22:16:52.560Z,83.79
2022-09-06T22:17:52.586Z,82.38
2022-09-06T22:18:52.559Z,83.15
2022-09-06T22:19:52.533Z,83.45
2022-09-06T22:20:52.534Z,83.65
2022-09-06T22:21:52.515Z,83.95
2022-09-06T22:22:52.500Z,83.04
2022-09-06T22:23:52.513Z,83.65
2022-09-06T22:24:52.479Z,82.64
2022-09-06T22:25:52.474Z,83.04
2022-09-06T22:26:52.549Z,82.95
2022-09-06T22:27:52.459Z,82.54
2022-09-06T22:28:52.457Z,82.95
2022-09-06T22:29:52.431Z,82.75
2022-09-06T22:30:52.416Z,81.54
2022-09-06T22:31:52.466Z,82.81
2022-09-06T22:32:52.396Z,83.25
2022-09-06T22:33:52.415Z,81.60
2022-09-06T22:34:52.377Z,81.90
2022-09-06T22:35:52.369Z,81.10
2022-09-06T22:36:52.379Z,81.20
2022-09-06T22:37:52.352Z,81.90
2022-09-06T22:38:52.349Z,81.20
2022-09-06T22:39:52.411Z,81.20
2022-09-06T22:40:52.312Z,80.80
2022-09-06T22:41:52.304Z,82.10
2022-09-06T22:42:52.296Z,82.10
2022-09-06T22:43:52.302Z,82.00
2022-09-06T22:44:52.269Z,82.00
2022-09-06T22:45:52.379Z,83.51
2022-09-06T22:46:52.325Z,82.20
2022-09-06T22:47:52.245Z,82.31
2022-09-06T22:48:52.250Z,82.81
2022-09-06T22:49:52.225Z,82.90
2022-09-06T22:50:52.218Z,83.95
2022-09-06T22:51:52.208Z,82.84
2022-09-06T22:52:52.193Z,82.95
2022-09-06T22:53:52.222Z,83.25
2022-09-06T22:54:52.171Z,83.85
2022-09-06T22:55:52.166Z,83.45
2022-09-06T22:56:52.152Z,83.55
2022-09-06T22:57:52.148Z,83.35
2022-09-06T22:58:52.225Z,83.85
2022-09-06T22:59:52.129Z,84.19
2022-09-06T23:00:52.171Z,84.49
2022-09-06T23:01:52.115Z,85.10
2022-09-06T23:02:52.104Z,84.19
2022-09-06T23:03:52.101Z,84.69
2022-09-06T23:04:52.094Z,84.39
2022-09-06T23:05:52.062Z,84.99
2022-09-06T23:06:52.058Z,84.39
2022-09-06T23:07:52.047Z,84.80
2022-09-06T23:08:52.058Z,84.69
2022-09-06T23:09:52.020Z,84.89
2022-09-06T23:10:52.011Z,85.39
2022-09-06T23:11:52.002Z,85.44
2022-09-06T23:12:51.994Z,85.14
2022-09-06T23:13:51.999Z,85.53
2022-09-06T23:14:51.970Z,85.24
2022-09-06T23:15:51.998Z,85.33
2022-09-06T23:16:51.951Z,84.53
2022-09-06T23:17:51.946Z,84.83
2022-09-06T23:18:51.953Z,84.29
2022-09-06T23:19:51.936Z,83.89
2022-09-06T23:20:51.912Z,84.29
2022-09-06T23:21:51.899Z,83.49
2022-09-06T23:22:51.921Z,84.29
2022-09-06T23:23:51.898Z,83.59
2022-09-06T23:24:51.910Z,83.69
2022-09-06T23:25:51.856Z,83.49
2022-09-06T23:26:51.868Z,83.59
2022-09-06T23:27:51.844Z,83.79
2022-09-06T23:28:51.874Z,83.99
2022-09-06T23:29:51.833Z,83.29
2022-09-06T23:30:51.810Z,83.09
2022-09-06T23:31:51.840Z,82.98
2022-09-06T23:32:51.798Z,83.29
2022-09-06T23:33:51.822Z,83.09
2022-09-06T23:34:51.791Z,83.09
2022-09-06T23:35:51.765Z,83.18
2022-09-06T23:36:51.758Z,83.09
2022-09-06T23:37:51.734Z,83.49
2022-09-06T23:38:51.766Z,83.49
2022-09-06T23:39:51.817Z,83.79
2022-09-06T23:40:51.709Z,83.69
2022-09-06T23:41:51.717Z,84.19
2022-09-06T23:42:51.687Z,83.99
2022-09-06T23:43:51.689Z,84.29
2022-09-06T23:44:51.683Z,82.98
2022-09-06T23:45:51.665Z,83.79
2022-09-06T23:46:51.690Z,82.89
2022-09-06T23:47:51.632Z,84.19
2022-09-06T23:48:51.665Z,83.59
2022-09-06T23:49:51.615Z,82.78
2022-09-06T23:50:51.619Z,83.49
2022-09-06T23:51:51.600Z,83.69
2022-09-06T23:52:51.585Z,83.99
2022-09-06T23:53:51.613Z,83.09
2022-09-06T23:54:51.575Z,83.69
2022-09-06T23:55:51.550Z,83.99
2022-09-06T23:56:51.562Z,83.69
2022-09-06T23:57:51.540Z,83.99
2022-09-06T23:58:51.563Z,83.09
2022-09-06T23:59:51.530Z,83.18
